Chronik & Geschichte

Boeing Stearman am Flugplatz Konstanz

Mit seiner 107-jährigen Geschichte ist Konstanz der älteste Verkehrslandeplatz Deutschlands. Lesen Sie unsere Festschrift zum 100-jährigen Platzjubiläum oder entdecken Sie die ausführliche Flugplatzchronik auf der Website der Initiative PRO Flugplatz Konstanz.

Live am Platz

Die Bilder unserer Webcams werden alle 5 Minuten aktualisiert.

Sonnenaufgang:

07:00 UTC / 08:00 Lokal

Sonnenuntergang:

15:33 UTC / 16:33 Lokal

METAR (12.12.2019 00:20 UTC):

EDNY 120020Z AUTO VRB02KT 9999 // BKN012/// BKN015/// OVC018/// 03/02 Q1008
MVFR

TAF (11.12.2019 23:00 UTC):

TAF EDNY 112300Z 1200/1224 24008KT 9999 SCT014 BKN025 TEMPO 1200/1208 BKN014 PROB30 TEMPO 1208/1211 SHRA BKN014 BKN020CB BECMG 1214/1216 VRB03KT

Alle Angaben unverbindlich und ohne Gewähr. Zeiten genähert.

Für den Verkehrslandeplatz Konstanz werden keine offiziellen Wetterinformationen ausgegeben. Daher werden zur Orientierung Daten des nahegelegenen Flughafens Friedrichshafen dargestellt.

Flugwetterdaten zur Verfügung gestellt von wippich.aero.